createdAt,value
2023-01-21T00:02:20.868Z,101767.66
2023-01-21T00:05:06.479Z,101765.13
2023-01-21T00:07:51.584Z,101772.72
2023-01-21T00:10:37.090Z,101781.53
2023-01-21T00:13:22.306Z,101782.03
2023-01-21T00:16:08.224Z,101786.75
2023-01-21T00:18:53.630Z,101796.28
2023-01-21T00:21:38.541Z,101803.38
2023-01-21T00:24:23.417Z,101807.63
2023-01-21T00:27:08.422Z,101807.56
2023-01-21T00:29:53.368Z,101809.88
2023-01-21T00:32:38.303Z,101808.72
2023-01-21T00:35:23.157Z,101819.19
2023-01-21T00:38:08.029Z,101819.63
2023-01-21T00:40:52.834Z,101829.16
2023-01-21T00:43:38.158Z,101827.78
2023-01-21T00:46:23.121Z,101826.03
2023-01-21T00:49:08.425Z,101830.31
2023-01-21T00:51:53.286Z,101840.09
2023-01-21T00:54:38.083Z,101833.63
2023-01-21T00:57:23.003Z,101841.09
2023-01-21T01:00:08.947Z,101836.19
2023-01-21T01:02:54.166Z,101847.53
2023-01-21T01:05:39.411Z,101850.09
2023-01-21T01:08:24.729Z,101852.34
2023-01-21T01:11:11.095Z,101855.50
2023-01-21T01:13:56.313Z,101864.84
2023-01-21T01:16:41.293Z,101880.75
2023-01-21T01:19:26.580Z,101891.88
2023-01-21T01:22:11.775Z,101895.03
2023-01-21T01:24:57.228Z,101897.69
2023-01-21T01:27:42.663Z,101897.56
2023-01-21T01:30:28.193Z,101904.44
2023-01-21T01:33:13.573Z,101912.66
2023-01-21T01:36:03.857Z,101910.47
2023-01-21T01:38:49.944Z,101915.56
2023-01-21T01:41:36.360Z,101919.72
2023-01-21T01:44:54.316Z,101926.88
2023-01-21T01:47:53.125Z,101936.69
2023-01-21T01:50:38.619Z,101938.00
2023-01-21T01:53:25.628Z,101937.84
2023-01-21T01:56:10.894Z,101950.34
2023-01-21T01:58:56.316Z,101956.41
2023-01-21T02:01:41.676Z,101961.94
2023-01-21T02:04:31.691Z,101967.28
2023-01-21T02:07:18.992Z,101966.69
2023-01-21T02:10:05.924Z,101971.16
2023-01-21T02:12:51.194Z,101969.31
2023-01-21T02:15:46.153Z,101976.63
2023-01-21T02:18:40.418Z,101972.31
2023-01-21T02:21:52.747Z,101971.47
2023-01-21T02:24:56.874Z,101975.16
2023-01-21T02:28:13.493Z,101981.25
2023-01-21T02:31:17.354Z,101980.66
2023-01-21T02:34:17.854Z,101986.44
2023-01-21T02:37:37.239Z,101993.75
2023-01-21T02:40:37.450Z,101987.66
2023-01-21T02:43:31.333Z,101991.34
2023-01-21T02:46:31.298Z,101996.72
2023-01-21T02:49:34.552Z,101996.41
2023-01-21T02:52:22.953Z,102002.69
2023-01-21T02:55:16.900Z,101989.88
2023-01-21T02:58:07.988Z,101996.44
2023-01-21T03:00:58.167Z,101992.56
2023-01-21T03:03:58.525Z,101990.63
2023-01-21T03:06:53.007Z,101999.84
2023-01-21T03:09:38.603Z,101992.69
2023-01-21T03:12:35.183Z,101999.41
2023-01-21T03:15:26.759Z,102004.91
2023-01-21T03:18:22.884Z,102004.44
2023-01-21T03:21:12.679Z,101993.28
2023-01-21T03:23:59.264Z,101999.53
2023-01-21T03:26:49.363Z,101990.47
2023-01-21T03:29:35.860Z,101993.47
2023-01-21T03:32:22.786Z,101992.13
2023-01-21T03:35:08.854Z,101989.28
2023-01-21T03:37:58.493Z,101995.81
2023-01-21T03:41:07.225Z,102005.50
2023-01-21T03:43:52.580Z,102006.50
2023-01-21T03:47:01.756Z,102005.94
2023-01-21T03:49:53.136Z,102012.03
2023-01-21T03:52:43.420Z,102010.50
2023-01-21T03:55:28.408Z,102025.53
2023-01-21T03:58:13.236Z,102012.75
2023-01-21T04:00:58.190Z,102022.25
2023-01-21T04:03:43.594Z,102023.31
2023-01-21T04:06:28.779Z,102028.09
2023-01-21T04:09:13.738Z,102032.09
2023-01-21T04:11:58.627Z,102033.00
2023-01-21T04:14:43.976Z,102040.88
2023-01-21T04:17:29.597Z,102049.94
2023-01-21T04:20:14.765Z,102039.22
2023-01-21T04:23:00.147Z,102047.84
2023-01-21T04:25:48.159Z,102051.41
2023-01-21T04:28:34.088Z,102053.75
2023-01-21T04:31:18.981Z,102053.91
2023-01-21T04:34:04.281Z,102058.94
2023-01-21T04:36:49.570Z,102061.66
2023-01-21T04:39:35.074Z,102057.34
2023-01-21T04:42:20.095Z,102058.69
2023-01-21T04:45:07.389Z,102062.59
2023-01-21T04:47:52.347Z,102059.75
2023-01-21T04:50:37.798Z,102065.09
2023-01-21T04:53:23.010Z,102065.97
2023-01-21T04:56:08.455Z,102074.72
2023-01-21T04:58:53.401Z,102072.19
2023-01-21T05:01:38.350Z,102076.03
2023-01-21T05:04:23.618Z,102081.09
2023-01-21T05:07:08.760Z,102081.31
2023-01-21T05:09:53.922Z,102082.56
2023-01-21T05:12:39.325Z,102080.16
2023-01-21T05:15:24.203Z,102085.69
2023-01-21T05:18:09.557Z,102090.56
2023-01-21T05:20:54.559Z,102099.31
2023-01-21T05:23:39.412Z,102099.41
2023-01-21T05:26:24.938Z,102097.31
2023-01-21T05:29:10.372Z,102109.19
2023-01-21T05:31:55.589Z,102113.09
2023-01-21T05:34:40.971Z,102114.16
2023-01-21T05:37:25.713Z,102112.00
2023-01-21T05:40:11.298Z,102117.03
2023-01-21T05:42:56.278Z,102118.56
2023-01-21T05:45:42.116Z,102126.09
2023-01-21T05:48:27.331Z,102125.88
2023-01-21T05:51:13.132Z,102129.81
2023-01-21T05:53:58.493Z,102142.16
2023-01-21T05:56:43.271Z,102148.53
2023-01-21T05:59:28.178Z,102150.59
2023-01-21T06:02:13.617Z,102146.88
2023-01-21T06:04:59.048Z,102151.00
2023-01-21T06:07:43.985Z,102154.72
2023-01-21T06:10:29.294Z,102160.94
2023-01-21T06:13:15.839Z,102154.31
2023-01-21T06:16:01.215Z,102161.19
2023-01-21T06:18:46.703Z,102165.34
2023-01-21T06:21:31.869Z,102167.13
2023-01-21T06:24:17.289Z,102166.59
2023-01-21T06:27:02.594Z,102170.00
2023-01-21T06:29:47.901Z,102176.81
2023-01-21T06:32:33.443Z,102179.81
2023-01-21T06:35:18.725Z,102179.53
2023-01-21T06:38:03.958Z,102185.03
2023-01-21T06:40:49.345Z,102186.47
2023-01-21T06:43:34.837Z,102192.78
2023-01-21T06:46:20.241Z,102185.66
2023-01-21T06:49:05.629Z,102191.34
2023-01-21T06:51:50.993Z,102198.28
2023-01-21T06:54:36.321Z,102202.03
2023-01-21T06:57:21.764Z,102203.03
2023-01-21T07:00:08.239Z,102197.59
2023-01-21T07:02:58.375Z,102198.91
2023-01-21T07:05:43.347Z,102194.41
2023-01-21T07:08:28.212Z,102199.50
2023-01-21T07:11:13.663Z,102203.53
2023-01-21T07:13:58.952Z,102209.91
2023-01-21T07:16:43.793Z,102211.38
2023-01-21T07:19:29.214Z,102215.56
2023-01-21T07:22:14.614Z,102218.66
2023-01-21T07:24:59.562Z,102225.31
2023-01-21T07:27:44.653Z,102225.69
2023-01-21T07:30:29.837Z,102222.88
2023-01-21T07:33:14.767Z,102226.34
2023-01-21T07:35:59.668Z,102222.03
2023-01-21T07:38:44.884Z,102219.84
2023-01-21T07:41:30.364Z,102224.09
2023-01-21T07:44:15.786Z,102224.38
2023-01-21T07:47:00.951Z,102229.94
2023-01-21T07:49:51.151Z,102223.97
2023-01-21T07:52:36.217Z,102230.66
2023-01-21T07:55:22.040Z,102233.47
2023-01-21T07:58:06.976Z,102233.19
2023-01-21T08:00:51.753Z,102238.91
2023-01-21T08:03:37.331Z,102249.28
2023-01-21T08:06:22.555Z,102248.88
2023-01-21T08:09:09.172Z,102248.97
2023-01-21T08:11:54.311Z,102249.34
2023-01-21T08:14:39.765Z,102248.97
2023-01-21T08:17:24.708Z,102256.38
2023-01-21T08:20:11.321Z,102255.50
2023-01-21T08:22:59.910Z,102256.81
2023-01-21T08:25:44.748Z,102249.78
2023-01-21T08:28:29.716Z,102254.78
2023-01-21T08:31:15.041Z,102254.94
2023-01-21T08:34:00.303Z,102259.97
2023-01-21T08:36:45.677Z,102250.72
2023-01-21T08:39:30.882Z,102250.09
2023-01-21T08:42:16.343Z,102242.50
2023-01-21T08:45:01.340Z,102250.34
2023-01-21T08:47:46.583Z,102250.50
2023-01-21T08:50:31.545Z,102252.41
2023-01-21T08:53:16.815Z,102257.50
2023-01-21T08:56:03.792Z,102263.59
2023-01-21T08:58:54.134Z,102260.81
2023-01-21T09:01:38.966Z,102271.41
2023-01-21T09:04:23.957Z,102276.22
2023-01-21T09:07:08.851Z,102276.47
2023-01-21T09:09:53.994Z,102280.72
2023-01-21T09:12:42.151Z,102280.72
2023-01-21T09:15:27.033Z,102295.06
2023-01-21T09:18:12.408Z,102286.06
2023-01-21T09:21:02.743Z,102292.66
2023-01-21T09:23:48.041Z,102293.81
2023-01-21T09:26:33.044Z,102294.56
2023-01-21T09:29:18.303Z,102293.44
2023-01-21T09:32:03.751Z,102289.88
2023-01-21T09:34:48.884Z,102296.50
2023-01-21T09:37:33.793Z,102300.84
2023-01-21T09:40:18.944Z,102301.97
2023-01-21T09:43:13.432Z,102309.00
2023-01-21T09:46:04.032Z,102311.66
2023-01-21T09:48:50.493Z,102319.66
2023-01-21T09:51:50.733Z,102318.28
2023-01-21T09:54:38.938Z,102314.69
2023-01-21T09:57:39.164Z,102317.00
2023-01-21T10:00:36.642Z,102321.97
2023-01-21T10:03:52.613Z,102323.50
2023-01-21T10:06:49.572Z,102323.97
2023-01-21T10:10:09.902Z,102322.84
2023-01-21T10:13:22.580Z,102334.69
2023-01-21T10:16:10.932Z,102343.31
2023-01-21T10:18:58.795Z,102343.06
2023-01-21T10:22:05.692Z,102347.88
2023-01-21T10:24:56.089Z,102357.59
2023-01-21T10:27:44.510Z,102359.63
2023-01-21T10:30:39.182Z,102359.25
2023-01-21T10:33:26.638Z,102361.91
2023-01-21T10:36:23.867Z,102357.59
2023-01-21T10:39:19.724Z,102355.28
2023-01-21T10:42:19.029Z,102361.44
2023-01-21T10:45:25.514Z,102354.41
2023-01-21T10:48:19.441Z,102358.88
2023-01-21T10:51:21.745Z,102356.59
2023-01-21T10:54:29.544Z,102373.41
2023-01-21T10:57:14.224Z,102363.47
2023-01-21T11:00:01.924Z,102370.13
2023-01-21T11:02:52.430Z,102358.88
2023-01-21T11:05:38.239Z,102352.03
2023-01-21T11:08:26.143Z,102353.56
2023-01-21T11:11:13.009Z,102352.03
2023-01-21T11:13:58.780Z,102347.44
2023-01-21T11:16:47.946Z,102343.88
2023-01-21T11:19:33.044Z,102338.88
2023-01-21T11:22:21.467Z,102333.41
2023-01-21T11:25:25.119Z,102321.22
2023-01-21T11:28:26.107Z,102319.03
2023-01-21T11:31:15.634Z,102317.38
2023-01-21T11:34:06.685Z,102304.75
2023-01-21T11:37:05.614Z,102294.31
2023-01-21T11:39:55.665Z,102291.63
2023-01-21T11:42:52.126Z,102279.69
2023-01-21T11:45:37.131Z,102276.88
2023-01-21T11:48:22.410Z,102268.72
2023-01-21T11:51:08.013Z,102264.66
2023-01-21T11:54:08.068Z,102260.94
2023-01-21T11:56:57.690Z,102249.09
2023-01-21T11:59:47.053Z,102242.75
2023-01-21T12:02:38.879Z,102227.69
2023-01-21T12:05:34.263Z,102211.38
2023-01-21T12:08:24.017Z,102206.22
2023-01-21T12:11:09.132Z,102188.03
2023-01-21T12:14:03.533Z,102172.63
2023-01-21T12:17:10.162Z,102161.94
2023-01-21T12:20:04.388Z,102150.47
2023-01-21T12:23:18.252Z,102135.19
2023-01-21T12:26:22.797Z,102137.78
2023-01-21T12:29:24.877Z,102114.25
2023-01-21T12:32:54.277Z,102099.75
2023-01-21T12:35:45.889Z,102085.00
2023-01-21T12:38:38.641Z,102082.59
2023-01-21T12:41:29.560Z,102077.44
2023-01-21T12:44:33.739Z,102075.44
2023-01-21T12:47:29.531Z,102084.09
2023-01-21T12:50:23.815Z,102090.09
2023-01-21T12:53:39.119Z,102105.38
2023-01-21T12:56:43.580Z,102114.84
2023-01-21T12:59:46.952Z,102115.22
2023-01-21T13:02:52.405Z,102115.47
2023-01-21T13:06:00.449Z,102114.22
2023-01-21T13:09:03.201Z,102114.16
2023-01-21T13:12:10.837Z,102108.28
2023-01-21T13:15:24.602Z,102112.13
2023-01-21T13:18:22.477Z,102088.13
2023-01-21T13:21:31.477Z,102092.38
2023-01-21T13:24:32.634Z,102101.06
2023-01-21T13:27:20.590Z,102100.59
2023-01-21T13:30:20.736Z,102092.75
2023-01-21T13:33:30.958Z,102080.34
2023-01-21T13:36:48.296Z,102056.75
2023-01-21T13:39:47.579Z,102059.91
2023-01-21T13:42:51.102Z,102047.38
2023-01-21T13:46:11.658Z,102038.00
2023-01-21T13:49:12.847Z,102030.31
2023-01-21T13:52:42.317Z,102038.34
2023-01-21T13:55:52.365Z,102043.97
2023-01-21T13:58:40.308Z,102045.88
2023-01-21T14:02:06.583Z,102042.81
2023-01-21T14:05:29.970Z,102042.09
2023-01-21T14:08:41.056Z,102048.41
2023-01-21T14:11:40.929Z,102059.47
2023-01-21T14:14:38.274Z,102053.78
2023-01-21T14:17:48.057Z,102069.91
2023-01-21T14:20:46.459Z,102085.28
2023-01-21T14:24:11.146Z,102094.16
2023-01-21T14:27:19.732Z,102103.06
2023-01-21T14:30:07.993Z,102103.84
2023-01-21T14:32:57.621Z,102104.91
2023-01-21T14:36:00.800Z,102093.44
2023-01-21T14:39:06.456Z,102094.59
2023-01-21T14:42:02.216Z,102094.72
2023-01-21T14:44:53.586Z,102100.72
2023-01-21T14:47:38.390Z,102099.47
2023-01-21T14:50:45.233Z,102103.16
2023-01-21T14:53:30.688Z,102099.41
2023-01-21T14:56:21.573Z,102104.34
2023-01-21T14:59:23.767Z,102103.69
2023-01-21T15:02:29.258Z,102104.06
2023-01-21T15:05:22.868Z,102123.16
2023-01-21T15:08:18.563Z,102133.59
2023-01-21T15:11:06.289Z,102140.56
2023-01-21T15:14:03.713Z,102150.66
2023-01-21T15:16:48.950Z,102163.69
2023-01-21T15:19:35.898Z,102167.34
2023-01-21T15:22:37.496Z,102180.63
2023-01-21T15:25:29.894Z,102170.66
2023-01-21T15:28:26.058Z,102178.59
2023-01-21T15:31:39.833Z,102173.78
2023-01-21T15:34:26.347Z,102171.88
2023-01-21T15:37:20.409Z,102161.94
2023-01-21T15:40:23.608Z,102167.56
2023-01-21T15:43:42.800Z,102143.31
2023-01-21T15:46:30.851Z,102153.22
2023-01-21T15:49:28.448Z,102150.63
2023-01-21T15:52:41.392Z,102163.59
2023-01-21T15:55:32.704Z,102158.50
2023-01-21T15:58:45.985Z,102157.38
2023-01-21T16:01:37.564Z,102170.28
2023-01-21T16:04:33.017Z,102185.44
2023-01-21T16:07:48.321Z,102198.34
2023-01-21T16:10:57.607Z,102199.66
2023-01-21T16:14:07.042Z,102213.16
2023-01-21T16:17:18.230Z,102221.56
2023-01-21T16:20:07.065Z,102232.66
2023-01-21T16:22:58.547Z,102244.50
2023-01-21T16:25:48.540Z,102243.97
2023-01-21T16:28:44.841Z,102244.00
2023-01-21T16:31:44.708Z,102250.22
2023-01-21T16:34:40.982Z,102256.22
2023-01-21T16:37:29.553Z,102260.75
2023-01-21T16:40:23.864Z,102258.84
2023-01-21T16:43:25.669Z,102258.22
2023-01-21T16:46:35.274Z,102256.84
2023-01-21T16:49:20.572Z,102263.84
2023-01-21T16:52:05.939Z,102273.66
2023-01-21T16:54:55.566Z,102274.16
2023-01-21T16:57:50.624Z,102274.31
2023-01-21T17:00:36.009Z,102281.19
2023-01-21T17:03:24.187Z,102297.50
2023-01-21T17:06:15.728Z,102288.94
2023-01-21T17:09:03.584Z,102291.88
2023-01-21T17:11:49.110Z,102287.66
2023-01-21T17:14:35.111Z,102285.63
2023-01-21T17:17:23.261Z,102290.59
2023-01-21T17:20:41.363Z,102302.06
2023-01-21T17:23:30.090Z,102305.91
2023-01-21T17:26:39.526Z,102308.06
2023-01-21T17:29:29.961Z,102307.91
2023-01-21T17:32:33.939Z,102302.41
2023-01-21T17:35:23.357Z,102304.81
2023-01-21T17:38:28.790Z,102306.63
2023-01-21T17:41:34.362Z,102318.59
2023-01-21T17:44:24.027Z,102307.91
2023-01-21T17:47:23.450Z,102310.84
2023-01-21T17:50:23.846Z,102316.97
2023-01-21T17:53:20.503Z,102322.97
2023-01-21T17:56:08.549Z,102323.44
2023-01-21T17:58:53.894Z,102327.16
2023-01-21T18:01:39.180Z,102343.59
2023-01-21T18:04:24.593Z,102336.59
2023-01-21T18:07:28.770Z,102348.78
2023-01-21T18:10:17.296Z,102345.50
2023-01-21T18:13:03.188Z,102346.63
2023-01-21T18:15:48.481Z,102341.03
2023-01-21T18:18:34.187Z,102343.19
2023-01-21T18:21:20.762Z,102347.78
2023-01-21T18:24:08.687Z,102353.88
2023-01-21T18:26:54.539Z,102355.06
2023-01-21T18:29:39.589Z,102355.56
2023-01-21T18:32:24.969Z,102346.25
2023-01-21T18:35:11.019Z,102349.03
2023-01-21T18:37:56.567Z,102346.16
2023-01-21T18:40:41.753Z,102353.00
2023-01-21T18:43:26.726Z,102344.81
2023-01-21T18:46:13.420Z,102341.78
2023-01-21T18:48:58.507Z,102340.66
2023-01-21T18:51:46.476Z,102325.22
2023-01-21T18:54:32.679Z,102327.91
2023-01-21T18:57:22.690Z,102337.84
2023-01-21T19:00:28.748Z,102332.75
2023-01-21T19:03:15.151Z,102335.56
2023-01-21T19:06:00.293Z,102332.75
2023-01-21T19:08:46.271Z,102337.63
2023-01-21T19:11:31.344Z,102330.09
2023-01-21T19:14:17.011Z,102316.97
2023-01-21T19:17:02.488Z,102326.00
2023-01-21T19:19:47.343Z,102332.63
2023-01-21T19:22:32.529Z,102325.38
2023-01-21T19:25:18.523Z,102323.06
2023-01-21T19:28:03.899Z,102319.78
2023-01-21T19:30:48.763Z,102320.91
2023-01-21T19:33:34.692Z,102313.50
2023-01-21T19:36:21.137Z,102310.06
2023-01-21T19:39:15.571Z,102304.09
2023-01-21T19:42:08.533Z,102291.09
2023-01-21T19:44:54.168Z,102293.41
2023-01-21T19:47:40.901Z,102292.13
2023-01-21T19:50:27.393Z,102297.50
2023-01-21T19:53:18.868Z,102301.34
2023-01-21T19:56:05.638Z,102310.50
2023-01-21T19:58:51.225Z,102319.81
2023-01-21T20:01:36.484Z,102327.69
2023-01-21T20:04:21.798Z,102327.31
2023-01-21T20:07:07.185Z,102334.59
2023-01-21T20:09:52.228Z,102341.72
2023-01-21T20:12:37.096Z,102338.38
2023-01-21T20:15:27.410Z,102335.72
2023-01-21T20:18:33.168Z,102352.78
2023-01-21T20:21:18.793Z,102338.38
2023-01-21T20:24:04.335Z,102348.97
2023-01-21T20:29:34.668Z,102341.44
2023-01-21T20:32:19.709Z,102336.34
2023-01-21T20:35:05.100Z,102332.66
2023-01-21T20:37:53.802Z,102334.19
2023-01-21T20:40:39.939Z,102328.81
2023-01-21T20:43:25.343Z,102343.22
2023-01-21T20:46:17.381Z,102341.19
2023-01-21T20:49:02.764Z,102343.38
2023-01-21T20:51:47.870Z,102347.16
2023-01-21T20:54:32.679Z,102346.28
2023-01-21T20:57:17.720Z,102353.53
2023-01-21T21:00:04.337Z,102364.59
2023-01-21T21:02:49.803Z,102362.16
2023-01-21T21:05:34.795Z,102356.72
2023-01-21T21:08:21.547Z,102363.31
2023-01-21T21:11:06.714Z,102362.41
2023-01-21T21:13:52.135Z,102363.78
2023-01-21T21:16:37.725Z,102360.00
2023-01-21T21:19:23.075Z,102374.84
2023-01-21T21:22:08.061Z,102378.78
2023-01-21T21:24:53.398Z,102382.50
2023-01-21T21:27:38.340Z,102393.19
2023-01-21T21:30:29.396Z,102398.69
2023-01-21T21:33:20.000Z,102410.78
2023-01-21T21:36:05.736Z,102408.34
2023-01-21T21:38:51.926Z,102404.41
2023-01-21T21:41:37.009Z,102385.59
2023-01-21T21:44:22.011Z,102391.44
2023-01-21T21:47:09.721Z,102388.41
2023-01-21T21:49:55.232Z,102379.34
2023-01-21T21:52:40.006Z,102375.78
2023-01-21T21:55:25.419Z,102350.56
2023-01-21T21:58:10.521Z,102353.28
2023-01-21T22:00:55.648Z,102346.16
2023-01-21T22:03:41.614Z,102335.19
2023-01-21T22:06:27.452Z,102325.91
2023-01-21T22:09:13.029Z,102329.59
2023-01-21T22:11:58.181Z,102340.13
2023-01-21T22:14:43.014Z,102345.63
2023-01-21T22:17:27.973Z,102340.69
2023-01-21T22:20:13.282Z,102342.56
2023-01-21T22:22:58.777Z,102322.22
2023-01-21T22:25:44.038Z,102321.44
2023-01-21T22:28:29.618Z,102320.81
2023-01-21T22:31:18.271Z,102315.59
2023-01-21T22:34:03.833Z,102297.41
2023-01-21T22:36:49.042Z,102303.50
2023-01-21T22:39:34.058Z,102301.34
2023-01-21T22:42:19.354Z,102297.66
2023-01-21T22:45:04.937Z,102286.94
2023-01-21T22:47:49.729Z,102284.53
2023-01-21T22:50:34.683Z,102284.91
2023-01-21T22:53:19.687Z,102270.28
2023-01-21T22:56:05.131Z,102263.41
2023-01-21T22:58:50.129Z,102265.41
2023-01-21T23:01:35.439Z,102252.69
2023-01-21T23:04:20.707Z,102268.50
2023-01-21T23:07:05.952Z,102272.69
2023-01-21T23:09:51.147Z,102268.75
2023-01-21T23:12:36.436Z,102284.00
2023-01-21T23:15:22.764Z,102269.78
2023-01-21T23:18:07.578Z,102279.56
2023-01-21T23:20:52.764Z,102285.03
2023-01-21T23:23:38.397Z,102285.91
2023-01-21T23:26:23.452Z,102304.84
2023-01-21T23:29:08.955Z,102301.38
2023-01-21T23:31:54.044Z,102306.38
2023-01-21T23:34:39.477Z,102303.97
2023-01-21T23:37:24.445Z,102300.38
2023-01-21T23:40:09.880Z,102291.34
2023-01-21T23:42:55.161Z,102301.53
2023-01-21T23:45:40.111Z,102291.63
2023-01-21T23:48:25.026Z,102274.72
2023-01-21T23:51:12.957Z,102269.00
2023-01-21T23:53:58.128Z,102283.59
2023-01-21T23:56:43.177Z,102277.88
2023-01-21T23:59:27.957Z,102276.84
